Terminal Aerodrome Forecast
Issued by NWS

Home | Current Version | Previous Version | Text Only | Print | Product List | Glossary Off
Versions: 1 2 3 4 5 6 7 8 9 10 11 12 13 14 15 16 17 18 19 20

000
FTUS43 KGRB 281844 AAA
TAFATW
TAF AMD
KATW 281844Z 2819/2918 07011G18KT P6SM VCSH OVC060
      TEMPO 2819/2820 -SHRA BKN035 OVC050
     FM290000 06009KT P6SM VCSH OVC060
     FM291000 04005KT P6SM BKN080=

USA.gov is the U.S. government's official web portal to all federal, state and local government web resources and services.